createdAt,value
2023-04-08T00:00:06.369Z,95207.00
2023-04-08T00:01:06.404Z,95205.00
2023-04-08T00:02:06.483Z,95209.00
2023-04-08T00:03:06.447Z,95209.00
2023-04-08T00:04:06.564Z,95209.00
2023-04-08T00:05:06.384Z,95209.00
2023-04-08T00:06:06.423Z,95213.00
2023-04-08T00:07:06.394Z,95213.00
2023-04-08T00:08:06.395Z,95211.00
2023-04-08T00:09:06.394Z,95211.00
2023-04-08T00:10:06.394Z,95211.00
2023-04-08T00:11:06.413Z,95217.00
2023-04-08T00:12:06.419Z,95217.00
2023-04-08T00:13:06.469Z,95213.00
2023-04-08T00:14:06.420Z,95215.00
2023-04-08T00:15:06.398Z,95215.00
2023-04-08T00:16:06.394Z,95217.00
2023-04-08T00:17:06.587Z,95220.00
2023-04-08T00:18:06.427Z,95217.00
2023-04-08T00:19:06.386Z,95215.00
2023-04-08T00:20:06.376Z,95219.00
2023-04-08T00:21:06.370Z,95219.00
2023-04-08T00:22:06.412Z,95220.00
2023-04-08T00:23:06.399Z,95215.00
2023-04-08T00:24:06.413Z,95215.00
2023-04-08T00:25:06.434Z,95217.00
2023-04-08T00:26:06.426Z,95213.00
2023-04-08T00:27:06.464Z,95215.00
2023-04-08T00:28:06.473Z,95217.00
2023-04-08T00:29:06.434Z,95217.00
2023-04-08T00:30:06.475Z,95215.00
2023-04-08T00:31:06.549Z,95217.00
2023-04-08T00:32:06.629Z,95215.00
2023-04-08T00:33:06.675Z,95215.00
2023-04-08T00:34:06.720Z,95215.00
2023-04-08T00:35:06.802Z,95217.00
2023-04-08T00:36:06.861Z,95219.00
2023-04-08T00:37:06.936Z,95215.00
2023-04-08T00:38:06.982Z,95215.00
2023-04-08T00:39:07.020Z,95217.00
2023-04-08T00:40:07.076Z,95215.00
2023-04-08T00:41:07.108Z,95213.00
2023-04-08T00:42:07.141Z,95217.00
2023-04-08T00:43:07.167Z,95219.00
2023-04-08T00:44:07.198Z,95217.00
2023-04-08T00:45:07.218Z,95217.00
2023-04-08T00:46:07.304Z,95215.00
2023-04-08T00:47:07.274Z,95215.00
2023-04-08T00:48:07.297Z,95215.00
2023-04-08T00:49:07.337Z,95215.00
2023-04-08T00:50:07.377Z,95215.00
2023-04-08T00:51:07.410Z,95219.00
2023-04-08T00:52:07.469Z,95219.00
2023-04-08T00:53:07.472Z,95217.00
2023-04-08T00:54:07.532Z,95217.00
2023-04-08T00:55:07.587Z,95219.00
2023-04-08T00:56:07.631Z,95215.00
2023-04-08T00:57:07.684Z,95217.00
2023-04-08T00:58:07.734Z,95215.00
2023-04-08T00:59:07.782Z,95220.00
2023-04-08T01:00:07.854Z,95217.00
2023-04-08T01:01:07.949Z,95217.00
2023-04-08T01:02:08.106Z,95217.00
2023-04-08T01:03:08.417Z,95217.00
2023-04-08T01:04:08.209Z,95217.00
2023-04-08T01:05:08.154Z,95215.00
2023-04-08T01:06:08.226Z,95213.00
2023-04-08T01:07:08.309Z,95215.00
2023-04-08T01:08:08.367Z,95217.00
2023-04-08T01:09:08.413Z,95219.00
2023-04-08T01:10:08.467Z,95217.00
2023-04-08T01:11:08.518Z,95215.00
2023-04-08T01:12:08.603Z,95215.00
2023-04-08T01:13:08.665Z,95217.00
2023-04-08T01:14:08.664Z,95217.00
2023-04-08T01:15:08.727Z,95217.00
2023-04-08T01:16:08.824Z,95217.00
2023-04-08T01:17:08.820Z,95217.00
2023-04-08T01:18:08.931Z,95219.00
2023-04-08T01:19:08.954Z,95217.00
2023-04-08T01:20:09.019Z,95219.00
2023-04-08T01:21:09.060Z,95219.00
2023-04-08T01:22:09.122Z,95217.00
2023-04-08T01:23:09.215Z,95217.00
2023-04-08T01:24:09.259Z,95219.00
2023-04-08T01:25:09.320Z,95220.00
2023-04-08T01:26:09.370Z,95217.00
2023-04-08T01:27:09.424Z,95217.00
2023-04-08T01:28:09.470Z,95215.00
2023-04-08T01:29:09.507Z,95215.00
2023-04-08T01:30:09.558Z,95213.00
2023-04-08T01:31:09.607Z,95213.00
2023-04-08T01:32:09.682Z,95215.00
2023-04-08T01:33:09.701Z,95217.00
2023-04-08T01:34:09.785Z,95215.00
2023-04-08T01:35:09.810Z,95217.00
2023-04-08T01:36:09.838Z,95215.00
2023-04-08T01:37:09.855Z,95211.00
2023-04-08T01:38:09.867Z,95213.00
2023-04-08T01:39:09.919Z,95213.00
2023-04-08T01:40:09.924Z,95211.00
2023-04-08T01:41:09.951Z,95215.00
2023-04-08T01:42:10.026Z,95213.00
2023-04-08T01:43:10.017Z,95215.00
2023-04-08T01:44:10.052Z,95215.00
2023-04-08T01:45:10.108Z,95217.00
2023-04-08T01:46:10.210Z,95215.00
2023-04-08T01:47:10.277Z,95211.00
2023-04-08T01:48:10.305Z,95215.00
2023-04-08T01:49:10.364Z,95219.00
2023-04-08T01:50:10.443Z,95215.00
2023-04-08T01:51:10.468Z,95217.00
2023-04-08T01:52:10.574Z,95219.00
2023-04-08T01:53:10.564Z,95215.00
2023-04-08T01:54:10.615Z,95213.00
2023-04-08T01:55:10.680Z,95215.00
2023-04-08T01:56:10.706Z,95213.00
2023-04-08T01:57:10.754Z,95219.00
2023-04-08T01:58:10.812Z,95215.00
2023-04-08T01:59:10.880Z,95217.00
2023-04-08T02:00:10.932Z,95217.00
2023-04-08T02:01:10.992Z,95217.00
2023-04-08T02:02:11.146Z,95219.00
2023-04-08T02:03:11.269Z,95220.00
2023-04-08T02:04:11.347Z,95217.00
2023-04-08T02:05:11.179Z,95219.00
2023-04-08T02:06:11.218Z,95217.00
2023-04-08T02:07:11.198Z,95217.00
2023-04-08T02:08:11.190Z,95215.00
2023-04-08T02:09:11.192Z,95215.00
2023-04-08T02:10:11.213Z,95217.00
2023-04-08T02:11:11.247Z,95217.00
2023-04-08T02:12:11.298Z,95215.00
2023-04-08T02:13:11.333Z,95217.00
2023-04-08T02:14:11.412Z,95217.00
2023-04-08T02:15:11.416Z,95215.00
2023-04-08T02:16:11.479Z,95215.00
2023-04-08T02:17:11.460Z,95215.00
2023-04-08T02:18:11.554Z,95215.00
2023-04-08T02:19:11.529Z,95217.00
2023-04-08T02:20:11.588Z,95215.00
2023-04-08T02:21:11.671Z,95219.00
2023-04-08T02:22:11.733Z,95222.00
2023-04-08T02:23:11.772Z,95219.00
2023-04-08T02:24:11.809Z,95219.00
2023-04-08T02:25:11.888Z,95219.00
2023-04-08T02:26:11.931Z,95219.00
2023-04-08T02:27:11.980Z,95219.00
2023-04-08T02:28:12.041Z,95219.00
2023-04-08T02:29:12.082Z,95220.00
2023-04-08T02:30:12.149Z,95219.00
2023-04-08T02:31:13.399Z,95217.00
2023-04-08T02:32:12.293Z,95215.00
2023-04-08T02:33:12.425Z,95215.00
2023-04-08T02:34:12.366Z,95215.00
2023-04-08T02:35:12.374Z,95219.00
2023-04-08T02:36:12.396Z,95217.00
2023-04-08T02:37:12.417Z,95222.00
2023-04-08T02:38:12.559Z,95222.00
2023-04-08T02:39:12.476Z,95224.00
2023-04-08T02:40:12.524Z,95222.00
2023-04-08T02:41:12.566Z,95222.00
2023-04-08T02:42:12.613Z,95222.00
2023-04-08T02:43:12.682Z,95226.00
2023-04-08T02:44:12.682Z,95224.00
2023-04-08T02:45:12.733Z,95226.00
2023-04-08T02:46:12.780Z,95226.00
2023-04-08T02:47:12.736Z,95226.00
2023-04-08T02:48:12.800Z,95224.00
2023-04-08T02:49:12.850Z,95219.00
2023-04-08T02:50:12.905Z,95220.00
2023-04-08T02:51:12.972Z,95224.00
2023-04-08T02:52:13.024Z,95228.00
2023-04-08T02:53:13.072Z,95230.00
2023-04-08T02:54:13.236Z,95230.00
2023-04-08T02:55:13.161Z,95228.00
2023-04-08T02:56:13.177Z,95232.00
2023-04-08T02:57:13.233Z,95230.00
2023-04-08T02:58:13.309Z,95236.00
2023-04-08T02:59:13.394Z,95232.00
2023-04-08T03:00:13.479Z,95230.00
2023-04-08T03:01:13.581Z,95232.00
2023-04-08T03:02:13.706Z,95232.00
2023-04-08T03:03:13.801Z,95232.00
2023-04-08T03:04:13.755Z,95232.00
2023-04-08T03:05:13.798Z,95230.00
2023-04-08T03:06:13.816Z,95232.00
2023-04-08T03:07:13.851Z,95226.00
2023-04-08T03:08:13.886Z,95230.00
2023-04-08T03:09:13.898Z,95228.00
2023-04-08T03:10:13.945Z,95230.00
2023-04-08T03:11:13.928Z,95224.00
2023-04-08T03:12:13.995Z,95226.00
2023-04-08T03:13:14.067Z,95230.00
2023-04-08T03:14:14.088Z,95228.00
2023-04-08T03:15:14.145Z,95226.00
2023-04-08T03:16:14.229Z,95226.00
2023-04-08T03:17:14.183Z,95224.00
2023-04-08T03:18:14.233Z,95222.00
2023-04-08T03:19:14.228Z,95226.00
2023-04-08T03:20:14.231Z,95226.00
2023-04-08T03:21:14.230Z,95222.00
2023-04-08T03:22:14.244Z,95224.00
2023-04-08T03:23:14.264Z,95222.00
2023-04-08T03:24:14.309Z,95222.00
2023-04-08T03:25:14.353Z,95224.00
2023-04-08T03:26:14.428Z,95226.00
2023-04-08T03:27:14.459Z,95226.00
2023-04-08T03:28:14.475Z,95230.00
2023-04-08T03:29:21.174Z,95234.00
2023-04-08T03:30:14.578Z,95230.00
2023-04-08T03:31:14.618Z,95228.00
2023-04-08T03:32:14.660Z,95230.00
2023-04-08T03:33:14.701Z,95230.00
2023-04-08T03:34:14.729Z,95228.00
2023-04-08T03:35:14.762Z,95228.00
2023-04-08T03:36:14.783Z,95230.00
2023-04-08T03:37:14.803Z,95232.00
2023-04-08T03:38:14.822Z,95230.00
2023-04-08T03:39:14.844Z,95232.00
2023-04-08T03:40:14.863Z,95236.00
2023-04-08T03:41:14.889Z,95236.00
2023-04-08T03:42:14.940Z,95236.00
2023-04-08T03:43:14.901Z,95236.00
2023-04-08T03:44:14.932Z,95238.00
2023-04-08T03:45:14.969Z,95236.00
2023-04-08T03:46:15.012Z,95238.00
2023-04-08T03:47:15.018Z,95238.00
2023-04-08T03:48:15.041Z,95238.00
2023-04-08T03:49:15.067Z,95240.00
2023-04-08T03:50:15.093Z,95244.00
2023-04-08T03:51:15.192Z,95242.00
2023-04-08T03:52:15.286Z,95246.00
2023-04-08T03:53:15.373Z,95248.00
2023-04-08T03:54:15.458Z,95252.00
2023-04-08T03:55:15.525Z,95254.00
2023-04-08T03:56:15.597Z,95254.00
2023-04-08T03:57:15.661Z,95256.00
2023-04-08T03:58:15.768Z,95254.00
2023-04-08T03:59:15.832Z,95256.00
2023-04-08T04:00:15.954Z,95256.00
2023-04-08T04:01:15.962Z,95258.00
2023-04-08T04:02:16.177Z,95256.00
2023-04-08T04:03:16.293Z,95258.00
2023-04-08T04:04:16.504Z,95260.00
2023-04-08T04:05:16.395Z,95256.00
2023-04-08T04:06:16.536Z,95258.00
2023-04-08T04:07:16.551Z,95260.00
2023-04-08T04:08:16.614Z,95256.00
2023-04-08T04:09:16.669Z,95256.00
2023-04-08T04:10:16.703Z,95260.00
2023-04-08T04:11:16.776Z,95262.00
2023-04-08T04:12:16.868Z,95264.00
2023-04-08T04:13:16.961Z,95271.00
2023-04-08T04:14:17.035Z,95269.00
2023-04-08T04:15:17.056Z,95267.00
2023-04-08T04:16:17.160Z,95271.00
2023-04-08T04:17:17.147Z,95267.00
2023-04-08T04:18:17.228Z,95267.00
2023-04-08T04:19:17.254Z,95269.00
2023-04-08T04:20:17.288Z,95269.00
2023-04-08T04:21:17.353Z,95269.00
2023-04-08T04:22:17.441Z,95269.00
2023-04-08T04:23:17.530Z,95269.00
2023-04-08T04:24:17.565Z,95273.00
2023-04-08T04:25:17.655Z,95271.00
2023-04-08T04:26:17.674Z,95269.00
2023-04-08T04:27:17.795Z,95271.00
2023-04-08T04:28:17.793Z,95273.00
2023-04-08T04:29:17.837Z,95273.00
2023-04-08T04:30:17.920Z,95275.00
2023-04-08T04:31:17.972Z,95275.00
2023-04-08T04:32:18.009Z,95279.00
2023-04-08T04:33:18.081Z,95277.00
2023-04-08T04:34:18.155Z,95277.00
2023-04-08T04:35:18.322Z,95275.00
2023-04-08T04:36:18.302Z,95277.00
2023-04-08T04:37:18.352Z,95279.00
2023-04-08T04:38:18.420Z,95279.00
2023-04-08T04:39:18.444Z,95281.00
2023-04-08T04:40:18.480Z,95281.00
2023-04-08T04:41:18.538Z,95283.00
2023-04-08T04:42:18.543Z,95283.00
2023-04-08T04:43:18.572Z,95283.00
2023-04-08T04:44:18.599Z,95281.00
2023-04-08T04:45:18.625Z,95283.00
2023-04-08T04:46:18.764Z,95287.00
2023-04-08T04:47:18.730Z,95287.00
2023-04-08T04:48:18.785Z,95287.00
2023-04-08T04:49:18.834Z,95287.00
2023-04-08T04:50:18.884Z,95289.00
2023-04-08T04:51:18.921Z,95285.00
2023-04-08T04:52:18.960Z,95287.00
2023-04-08T04:53:19.005Z,95285.00
2023-04-08T04:54:19.047Z,95287.00
2023-04-08T04:55:19.089Z,95287.00
2023-04-08T04:56:19.128Z,95283.00
2023-04-08T04:57:19.161Z,95287.00
2023-04-08T04:58:19.192Z,95283.00
2023-04-08T04:59:19.215Z,95283.00
2023-04-08T05:00:19.248Z,95283.00
2023-04-08T05:01:19.297Z,95283.00
2023-04-08T05:02:19.447Z,95281.00
2023-04-08T05:03:19.439Z,95279.00
2023-04-08T05:04:19.381Z,95281.00
2023-04-08T05:05:19.506Z,95285.00
2023-04-08T05:06:19.480Z,95285.00
2023-04-08T05:07:19.540Z,95283.00
2023-04-08T05:08:19.573Z,95289.00
2023-04-08T05:09:19.606Z,95287.00
2023-04-08T05:10:19.667Z,95287.00
2023-04-08T05:11:19.704Z,95293.00
2023-04-08T05:12:19.768Z,95289.00
2023-04-08T05:13:19.804Z,95291.00
2023-04-08T05:14:19.831Z,95291.00
2023-04-08T05:15:19.851Z,95293.00
2023-04-08T05:16:19.919Z,95295.00
2023-04-08T05:17:19.936Z,95297.00
2023-04-08T05:18:19.958Z,95299.00
2023-04-08T05:19:19.952Z,95295.00
2023-04-08T05:20:19.982Z,95297.00
2023-04-08T05:21:20.007Z,95299.00
2023-04-08T05:22:20.046Z,95299.00
2023-04-08T05:23:20.063Z,95303.00
2023-04-08T05:24:20.093Z,95305.00
2023-04-08T05:25:20.137Z,95305.00
2023-04-08T05:26:20.445Z,95303.00
2023-04-08T05:27:20.232Z,95303.00
2023-04-08T05:28:20.277Z,95303.00
2023-04-08T05:29:20.344Z,95305.00
2023-04-08T05:30:20.404Z,95303.00
2023-04-08T05:31:20.536Z,95305.00
2023-04-08T05:32:20.600Z,95305.00
2023-04-08T05:33:20.691Z,95301.00
2023-04-08T05:34:20.799Z,95303.00
2023-04-08T05:35:20.867Z,95305.00
2023-04-08T05:36:20.908Z,95309.00
2023-04-08T05:37:20.941Z,95305.00
2023-04-08T05:38:20.989Z,95307.00
2023-04-08T05:39:21.034Z,95307.00
2023-04-08T05:40:21.058Z,95307.00
2023-04-08T05:41:21.087Z,95307.00
2023-04-08T05:42:21.123Z,95305.00
2023-04-08T05:43:21.154Z,95305.00
2023-04-08T05:44:21.198Z,95307.00
2023-04-08T05:45:21.248Z,95307.00
2023-04-08T05:46:21.333Z,95309.00
2023-04-08T05:47:21.381Z,95307.00
2023-04-08T05:48:21.386Z,95305.00
2023-04-08T05:49:21.417Z,95311.00
2023-04-08T05:50:21.439Z,95311.00
2023-04-08T05:51:21.451Z,95309.00
2023-04-08T05:52:21.427Z,95309.00
2023-04-08T05:53:21.459Z,95311.00
2023-04-08T05:54:21.464Z,95313.00
2023-04-08T05:55:21.493Z,95314.00
2023-04-08T05:56:21.570Z,95314.00
2023-04-08T05:57:21.562Z,95313.00
2023-04-08T05:58:21.639Z,95316.00
2023-04-08T05:59:21.697Z,95316.00
2023-04-08T06:00:21.792Z,95314.00
2023-04-08T06:01:21.844Z,95316.00
2023-04-08T06:02:22.073Z,95316.00
2023-04-08T06:03:22.280Z,95316.00
2023-04-08T06:04:22.018Z,95316.00
2023-04-08T06:05:21.977Z,95316.00
2023-04-08T06:06:22.043Z,95318.00
2023-04-08T06:07:22.063Z,95318.00
2023-04-08T06:08:22.115Z,95322.00
2023-04-08T06:09:22.157Z,95322.00
2023-04-08T06:10:22.246Z,95324.00
2023-04-08T06:11:22.339Z,95322.00
2023-04-08T06:12:22.412Z,95322.00
2023-04-08T06:13:22.501Z,95324.00
2023-04-08T06:14:22.564Z,95322.00
2023-04-08T06:15:22.618Z,95324.00
2023-04-08T06:16:22.791Z,95320.00
2023-04-08T06:17:22.774Z,95322.00
2023-04-08T06:18:22.790Z,95318.00
2023-04-08T06:19:22.812Z,95318.00
2023-04-08T06:20:22.819Z,95320.00
2023-04-08T06:21:22.828Z,95318.00
2023-04-08T06:22:22.871Z,95314.00
2023-04-08T06:23:22.855Z,95313.00
2023-04-08T06:24:23.054Z,95316.00
2023-04-08T06:25:22.885Z,95313.00
2023-04-08T06:26:22.907Z,95313.00
2023-04-08T06:27:23.596Z,95313.00
2023-04-08T06:28:22.943Z,95311.00
2023-04-08T06:29:23.015Z,95309.00
2023-04-08T06:30:23.045Z,95311.00
2023-04-08T06:31:23.149Z,95313.00
2023-04-08T06:32:23.195Z,95313.00
2023-04-08T06:33:23.233Z,95311.00
2023-04-08T06:34:23.300Z,95311.00
2023-04-08T06:35:23.368Z,95311.00
2023-04-08T06:36:23.413Z,95311.00
2023-04-08T06:37:23.460Z,95305.00
2023-04-08T06:38:23.793Z,95303.00
2023-04-08T06:39:23.554Z,95307.00
2023-04-08T06:40:23.591Z,95305.00
2023-04-08T06:41:23.594Z,95305.00
2023-04-08T06:42:23.614Z,95307.00
2023-04-08T06:43:23.614Z,95305.00
2023-04-08T06:44:23.618Z,95303.00
2023-04-08T06:45:24.455Z,95305.00
2023-04-08T06:46:23.669Z,95303.00
2023-04-08T06:47:23.665Z,95301.00
2023-04-08T06:48:23.609Z,95303.00
2023-04-08T06:49:23.623Z,95301.00
2023-04-08T06:50:23.631Z,95299.00
2023-04-08T06:51:23.659Z,95303.00
2023-04-08T06:52:23.654Z,95299.00
2023-04-08T06:53:23.663Z,95299.00
2023-04-08T06:54:23.690Z,95299.00
2023-04-08T06:55:23.681Z,95303.00
2023-04-08T06:56:23.735Z,95301.00
2023-04-08T06:57:23.712Z,95303.00
2023-04-08T06:58:23.717Z,95303.00
2023-04-08T06:59:23.778Z,95307.00
2023-04-08T07:00:23.820Z,95307.00
2023-04-08T07:01:24.028Z,95305.00
2023-04-08T07:02:23.983Z,95307.00
2023-04-08T07:03:24.184Z,95305.00
2023-04-08T07:04:24.066Z,95307.00
2023-04-08T07:05:24.074Z,95305.00
2023-04-08T07:06:24.051Z,95307.00
2023-04-08T07:07:24.150Z,95305.00
2023-04-08T07:08:24.172Z,95307.00
2023-04-08T07:09:24.228Z,95303.00
2023-04-08T07:10:24.389Z,95303.00
2023-04-08T07:11:24.366Z,95303.00
2023-04-08T07:12:24.411Z,95303.00
2023-04-08T07:13:24.450Z,95305.00
2023-04-08T07:14:24.471Z,95307.00
2023-04-08T07:15:24.509Z,95307.00
2023-04-08T07:16:24.567Z,95303.00
2023-04-08T07:17:24.556Z,95307.00
2023-04-08T07:18:24.566Z,95305.00
2023-04-08T07:19:24.613Z,95305.00
2023-04-08T07:20:24.643Z,95307.00
2023-04-08T07:21:24.610Z,95307.00
2023-04-08T07:22:24.630Z,95305.00
2023-04-08T07:23:24.655Z,95307.00
2023-04-08T07:24:24.690Z,95305.00
2023-04-08T07:25:24.746Z,95309.00
2023-04-08T07:26:24.829Z,95307.00
2023-04-08T07:27:24.802Z,95305.00
2023-04-08T07:28:24.856Z,95307.00
2023-04-08T07:29:24.841Z,95307.00
2023-04-08T07:30:24.902Z,95307.00
2023-04-08T07:31:24.995Z,95303.00
2023-04-08T07:32:24.892Z,95303.00
2023-04-08T07:33:24.809Z,95299.00
2023-04-08T07:34:24.785Z,95301.00
2023-04-08T07:35:24.835Z,95297.00
2023-04-08T07:36:24.772Z,95303.00
2023-04-08T07:37:24.739Z,95301.00
2023-04-08T07:38:24.762Z,95305.00
2023-04-08T07:39:24.786Z,95299.00
2023-04-08T07:40:24.907Z,95297.00
2023-04-08T07:41:24.822Z,95299.00
2023-04-08T07:42:24.854Z,95299.00
2023-04-08T07:43:24.892Z,95295.00
2023-04-08T07:44:24.831Z,95299.00
2023-04-08T07:45:24.877Z,95299.00
2023-04-08T07:46:24.937Z,95299.00
2023-04-08T07:47:24.860Z,95297.00
2023-04-08T07:48:24.811Z,95297.00
2023-04-08T07:49:24.841Z,95297.00
2023-04-08T07:50:24.863Z,95297.00
2023-04-08T07:51:24.860Z,95297.00
2023-04-08T07:52:24.870Z,95295.00
2023-04-08T07:53:24.853Z,95295.00
2023-04-08T07:54:24.880Z,95295.00
2023-04-08T07:55:24.947Z,95295.00
2023-04-08T07:56:24.916Z,95297.00
2023-04-08T07:57:24.920Z,95299.00
2023-04-08T07:58:25.013Z,95299.00
2023-04-08T07:59:24.890Z,95295.00
2023-04-08T08:00:24.873Z,95297.00
2023-04-08T08:01:25.475Z,95295.00
2023-04-08T08:02:24.915Z,95297.00
2023-04-08T08:03:25.072Z,95299.00
2023-04-08T08:04:25.000Z,95293.00
2023-04-08T08:05:24.807Z,95289.00
2023-04-08T08:06:24.674Z,95293.00
2023-04-08T08:07:24.659Z,95293.00
2023-04-08T08:08:24.652Z,95289.00
2023-04-08T08:09:24.634Z,95293.00
2023-04-08T08:10:24.624Z,95293.00
2023-04-08T08:11:24.614Z,95293.00
2023-04-08T08:12:24.614Z,95287.00
2023-04-08T08:13:24.615Z,95285.00
2023-04-08T08:14:24.626Z,95285.00
2023-04-08T08:15:24.577Z,95287.00
2023-04-08T08:16:24.598Z,95285.00
2023-04-08T08:17:26.357Z,95285.00
2023-04-08T08:18:24.479Z,95287.00
2023-04-08T08:19:24.428Z,95283.00
2023-04-08T08:20:24.344Z,95283.00
2023-04-08T08:21:24.282Z,95281.00
2023-04-08T08:22:24.201Z,95277.00
2023-04-08T08:23:24.139Z,95277.00
2023-04-08T08:24:24.078Z,95279.00
2023-04-08T08:25:25.971Z,95277.00
2023-04-08T08:26:23.938Z,95273.00
2023-04-08T08:27:23.881Z,95273.00
2023-04-08T08:28:23.803Z,95269.00
2023-04-08T08:29:23.744Z,95271.00
2023-04-08T08:30:23.699Z,95275.00
2023-04-08T08:31:23.660Z,95271.00
2023-04-08T08:32:23.532Z,95273.00
2023-04-08T08:33:23.448Z,95273.00
2023-04-08T08:34:23.376Z,95271.00
2023-04-08T08:35:23.302Z,95273.00
2023-04-08T08:36:23.240Z,95271.00
2023-04-08T08:37:23.166Z,95269.00
2023-04-08T08:38:23.120Z,95273.00
2023-04-08T08:39:23.030Z,95273.00
2023-04-08T08:40:22.959Z,95269.00
2023-04-08T08:41:22.912Z,95269.00
2023-04-08T08:42:22.834Z,95271.00
2023-04-08T08:43:22.769Z,95271.00
2023-04-08T08:44:22.707Z,95271.00
2023-04-08T08:45:22.637Z,95273.00
2023-04-08T08:46:22.648Z,95269.00
2023-04-08T08:47:22.526Z,95273.00
2023-04-08T08:48:22.451Z,95271.00
2023-04-08T08:49:22.371Z,95269.00
2023-04-08T08:50:22.304Z,95271.00
2023-04-08T08:51:22.241Z,95269.00
2023-04-08T08:52:22.167Z,95271.00
2023-04-08T08:53:22.100Z,95267.00
2023-04-08T08:54:22.037Z,95269.00
2023-04-08T08:55:41.463Z,95267.00
2023-04-08T08:56:21.871Z,95269.00
2023-04-08T08:57:21.799Z,95269.00
2023-04-08T08:58:21.743Z,95269.00
2023-04-08T08:59:21.646Z,95271.00
2023-04-08T09:00:21.578Z,95271.00
2023-04-08T09:01:21.509Z,95269.00
2023-04-08T09:02:21.572Z,95273.00
2023-04-08T09:03:21.668Z,95273.00
2023-04-08T09:04:21.370Z,95271.00
2023-04-08T09:05:21.326Z,95271.00
2023-04-08T09:06:21.072Z,95275.00
2023-04-08T09:07:20.998Z,95275.00
2023-04-08T09:08:20.926Z,95277.00
2023-04-08T09:09:20.847Z,95273.00
2023-04-08T09:10:20.768Z,95273.00
2023-04-08T09:11:20.707Z,95275.00
2023-04-08T09:12:20.646Z,95275.00
2023-04-08T09:13:20.568Z,95273.00
2023-04-08T09:14:20.496Z,95279.00
2023-04-08T09:15:20.431Z,95277.00
2023-04-08T09:16:20.437Z,95275.00
2023-04-08T09:17:20.285Z,95277.00
2023-04-08T09:18:20.238Z,95277.00
2023-04-08T09:19:20.146Z,95275.00
2023-04-08T09:20:20.081Z,95279.00
2023-04-08T09:21:20.005Z,95277.00
2023-04-08T09:22:19.924Z,95277.00
2023-04-08T09:23:19.842Z,95277.00
2023-04-08T09:24:19.778Z,95279.00
2023-04-08T09:25:19.710Z,95277.00
2023-04-08T09:26:19.681Z,95275.00
2023-04-08T09:27:19.565Z,95271.00
2023-04-08T09:28:19.501Z,95277.00
2023-04-08T09:29:26.241Z,95275.00
2023-04-08T09:30:19.373Z,95277.00
2023-04-08T09:31:19.303Z,95275.00
2023-04-08T09:32:19.203Z,95277.00
2023-04-08T09:33:19.130Z,95275.00
2023-04-08T09:34:19.097Z,95273.00
2023-04-08T09:35:18.986Z,95275.00
2023-04-08T09:36:18.920Z,95277.00
2023-04-08T09:37:18.829Z,95273.00
2023-04-08T09:38:18.754Z,95275.00
2023-04-08T09:39:18.676Z,95273.00
2023-04-08T09:40:18.622Z,95271.00
2023-04-08T09:41:18.536Z,95271.00
2023-04-08T09:42:18.451Z,95275.00
2023-04-08T09:43:18.380Z,95273.00
2023-04-08T09:44:18.302Z,95277.00
2023-04-08T09:45:18.224Z,95275.00
2023-04-08T09:46:18.203Z,95271.00
2023-04-08T09:47:18.089Z,95273.00
2023-04-08T09:48:18.021Z,95273.00
2023-04-08T09:49:17.941Z,95271.00
2023-04-08T09:50:17.890Z,95271.00
2023-04-08T09:51:17.798Z,95269.00
2023-04-08T09:52:17.755Z,95273.00
2023-04-08T09:53:17.669Z,95269.00
2023-04-08T09:54:17.591Z,95269.00
2023-04-08T09:55:17.529Z,95269.00
2023-04-08T09:56:17.455Z,95269.00
2023-04-08T09:57:17.368Z,95271.00
2023-04-08T09:58:17.305Z,95273.00
2023-04-08T09:59:17.227Z,95271.00
2023-04-08T10:00:17.213Z,95273.00
2023-04-08T10:01:17.200Z,95273.00
2023-04-08T10:02:17.063Z,95269.00
2023-04-08T10:03:17.192Z,95275.00
2023-04-08T10:04:16.937Z,95281.00
2023-04-08T10:05:16.771Z,95281.00
2023-04-08T10:06:16.745Z,95275.00
2023-04-08T10:07:16.655Z,95269.00
2023-04-08T10:08:16.633Z,95279.00
2023-04-08T10:09:16.582Z,95275.00
2023-04-08T10:10:16.639Z,95269.00
2023-04-08T10:11:16.526Z,95271.00
2023-04-08T10:12:16.516Z,95277.00
2023-04-08T10:13:16.492Z,95277.00
2023-04-08T10:14:16.483Z,95277.00
2023-04-08T10:15:16.514Z,95277.00
2023-04-08T10:16:16.566Z,95283.00
2023-04-08T10:17:16.597Z,95283.00
2023-04-08T10:18:16.643Z,95285.00
2023-04-08T10:19:16.653Z,95285.00
2023-04-08T10:20:16.672Z,95287.00
2023-04-08T10:21:16.686Z,95293.00
2023-04-08T10:22:16.730Z,95295.00
2023-04-08T10:23:16.766Z,95295.00
2023-04-08T10:24:16.773Z,95299.00
2023-04-08T10:25:16.865Z,95297.00
2023-04-08T10:26:16.815Z,95299.00
2023-04-08T10:27:15.836Z,95303.00
2023-04-08T10:28:16.895Z,95303.00
2023-04-08T10:29:16.936Z,95301.00
2023-04-08T10:30:17.005Z,95307.00
2023-04-08T10:31:17.008Z,95307.00
2023-04-08T10:32:17.033Z,95314.00
2023-04-08T10:33:17.048Z,95311.00
2023-04-08T10:34:17.093Z,95311.00
2023-04-08T10:35:17.143Z,95314.00
2023-04-08T10:36:17.204Z,95318.00
2023-04-08T10:37:17.234Z,95320.00
2023-04-08T10:38:17.301Z,95318.00
2023-04-08T10:39:17.320Z,95320.00
2023-04-08T10:40:17.391Z,95328.00
2023-04-08T10:41:17.415Z,95324.00
2023-04-08T10:42:17.468Z,95324.00
2023-04-08T10:43:18.014Z,95322.00
2023-04-08T10:44:17.519Z,95330.00
2023-04-08T10:45:17.538Z,95328.00
2023-04-08T10:46:17.647Z,95330.00
2023-04-08T10:47:17.688Z,95336.00
2023-04-08T10:48:17.722Z,95334.00
2023-04-08T10:49:17.765Z,95336.00
2023-04-08T10:50:17.774Z,95336.00
2023-04-08T10:51:17.796Z,95340.00
2023-04-08T10:52:17.847Z,95334.00
2023-04-08T10:53:17.890Z,95334.00
2023-04-08T10:54:18.061Z,95338.00
2023-04-08T10:55:17.984Z,95338.00
2023-04-08T10:56:18.012Z,95342.00
2023-04-08T10:57:18.127Z,95338.00
2023-04-08T10:58:18.105Z,95340.00
2023-04-08T10:59:18.161Z,95342.00
2023-04-08T11:00:18.230Z,95342.00
2023-04-08T11:01:18.504Z,95338.00
2023-04-08T11:02:18.524Z,95342.00
2023-04-08T11:03:18.599Z,95338.00
2023-04-08T11:04:18.522Z,95336.00
2023-04-08T11:05:18.499Z,95342.00
2023-04-08T11:06:18.573Z,95340.00
2023-04-08T11:07:18.625Z,95346.00
2023-04-08T11:08:20.534Z,95346.00
2023-04-08T11:09:18.707Z,95344.00
2023-04-08T11:10:18.761Z,95344.00
2023-04-08T11:11:18.784Z,95344.00
2023-04-08T11:12:18.817Z,95350.00
2023-04-08T11:13:18.803Z,95348.00
2023-04-08T11:14:18.811Z,95350.00
2023-04-08T11:15:18.837Z,95354.00
2023-04-08T11:16:18.952Z,95358.00
2023-04-08T11:17:18.921Z,95358.00
2023-04-08T11:18:18.973Z,95356.00
2023-04-08T11:19:19.003Z,95352.00
2023-04-08T11:20:19.068Z,95352.00
2023-04-08T11:21:19.108Z,95354.00
2023-04-08T11:22:19.148Z,95360.00
2023-04-08T11:23:19.212Z,95356.00
2023-04-08T11:24:19.273Z,95360.00
2023-04-08T11:25:19.351Z,95363.00
2023-04-08T11:26:19.434Z,95360.00
2023-04-08T11:27:19.491Z,95367.00
2023-04-08T11:28:19.567Z,95358.00
2023-04-08T11:29:19.647Z,95363.00
2023-04-08T11:30:19.742Z,95365.00
2023-04-08T11:31:21.170Z,95354.00
2023-04-08T11:32:19.912Z,95363.00
2023-04-08T11:33:19.985Z,95361.00
2023-04-08T11:34:20.089Z,95360.00
2023-04-08T11:35:20.185Z,95354.00
2023-04-08T11:36:20.267Z,95354.00
2023-04-08T11:37:20.360Z,95360.00
2023-04-08T11:38:20.423Z,95361.00
2023-04-08T11:39:20.504Z,95365.00
2023-04-08T11:40:20.594Z,95354.00
2023-04-08T11:41:20.656Z,95352.00
2023-04-08T11:42:20.767Z,95377.00
2023-04-08T11:43:20.816Z,95373.00
2023-04-08T11:44:20.907Z,95363.00